Time,TemperatureF,DewpointF,PressureIn,WindDirection,WindDirectionDegrees,WindSpeedMPH,WindSpeedGustMPH,Humidity,HourlyPrecipIn,Conditions,Clouds,dailyrainin,SolarRadiationWatts/m^2,SoftwareType,DateUTC
2013-09-11 00:01:00,78.1,75.2,30.07,East,90,2.2,3.1,91,0.00,,,0.00,1067.0,meteobridge,2013-09-11 04:01:00,
2013-09-11 00:02:00,78.1,75.6,30.07,East,90,3.1,3.1,92,0.00,,,0.00,1067.0,meteobridge,2013-09-11 04:02:00,
2013-09-11 00:03:00,77.9,75.4,30.07,ENE,68,1.6,3.1,92,0.00,,,0.00,1067.0,meteobridge,2013-09-11 04:03:00,
2013-09-11 00:08:00,77.9,75.4,30.07,NE,45,2.2,2.2,92,0.00,,,0.00,1067.0,meteobridge,2013-09-11 04:08:00,
2013-09-11 00:14:00,77.7,75.2,30.07,East,90,3.1,3.1,92,0.00,,,0.00,957.0,meteobridge,2013-09-11 04:14:00,
2013-09-11 00:19:00,77.7,75.6,30.07,ENE,68,2.2,2.2,93,0.00,,,0.00,957.0,meteobridge,2013-09-11 04:19:00,
2013-09-11 00:24:00,77.5,75.4,30.07,NNE,23,1.6,1.6,93,0.00,,,0.00,847.0,meteobridge,2013-09-11 04:24:00,
2013-09-11 00:29:00,77.4,75.2,30.07,East,90,1.6,1.6,93,0.00,,,0.00,847.0,meteobridge,2013-09-11 04:29:00,
2013-09-11 00:34:00,77.4,75.6,30.06,East,90,3.8,3.8,94,0.00,,,0.00,811.0,meteobridge,2013-09-11 04:34:00,
2013-09-11 00:39:00,77.2,75.6,30.07,NW,315,3.1,4.5,95,0.00,,,0.00,811.0,meteobridge,2013-09-11 04:39:00,
2013-09-11 00:45:00,77.2,75.6,30.06,East,90,5.4,5.4,95,0.00,,,0.00,774.0,meteobridge,2013-09-11 04:45:00,
2013-09-11 00:50:00,77.2,75.6,30.07,East,90,2.2,3.1,95,0.00,,,0.00,774.0,meteobridge,2013-09-11 04:50:00,
2013-09-11 00:55:00,77.0,75.7,30.06,East,90,3.1,3.1,96,0.00,,,0.00,774.0,meteobridge,2013-09-11 04:55:00,
2013-09-11 01:00:00,77.0,75.7,30.06,SE,135,3.1,5.4,96,0.00,,,0.00,774.0,meteobridge,2013-09-11 05:00:00,
2013-09-11 01:05:00,77.0,76.1,30.06,NE,45,3.1,4.5,97,0.00,,,0.00,774.0,meteobridge,2013-09-11 05:05:00,
2013-09-11 01:10:00,77.0,76.1,30.06,East,90,3.1,3.1,97,0.00,,,0.00,774.0,meteobridge,2013-09-11 05:10:00,
2013-09-11 01:16:00,76.8,75.9,30.05,NE,45,2.2,5.4,97,0.00,,,0.00,774.0,meteobridge,2013-09-11 05:16:00,
2013-09-11 01:21:00,76.8,76.3,30.05,East,90,4.5,4.5,98,0.00,,,0.00,811.0,meteobridge,2013-09-11 05:21:00,
2013-09-11 01:26:00,76.6,76.1,30.06,North,0,3.1,3.1,98,0.00,,,0.00,811.0,meteobridge,2013-09-11 05:26:00,
2013-09-11 01:31:00,76.6,76.1,30.05,SSW,203,2.2,3.1,98,0.00,,,0.00,811.0,meteobridge,2013-09-11 05:31:00,
2013-09-11 01:36:00,76.6,76.1,30.05,NE,45,3.8,3.8,98,0.00,,,0.00,811.0,meteobridge,2013-09-11 05:36:00,
2013-09-11 01:41:00,76.6,76.3,30.05,ENE,68,3.8,6.0,99,0.00,,,0.00,847.0,meteobridge,2013-09-11 05:41:00,
2013-09-11 01:47:00,76.6,76.3,30.05,East,90,3.8,3.8,99,0.00,,,0.00,847.0,meteobridge,2013-09-11 05:47:00,
2013-09-11 01:52:00,76.6,76.3,30.05,East,90,3.8,3.8,99,0.00,,,0.00,884.0,meteobridge,2013-09-11 05:52:00,
2013-09-11 01:57:00,76.5,76.1,30.04,East,90,3.1,3.8,99,0.00,,,0.00,884.0,meteobridge,2013-09-11 05:57:00,
2013-09-11 02:02:00,76.5,76.1,30.04,SE,135,3.1,4.5,99,0.00,,,0.00,884.0,meteobridge,2013-09-11 06:02:00,
2013-09-11 02:07:00,76.5,76.1,30.04,NE,45,3.1,3.1,99,0.00,,,0.00,884.0,meteobridge,2013-09-11 06:07:00,
2013-09-11 02:12:00,76.5,76.1,30.04,East,90,2.2,2.2,99,0.00,,,0.00,921.0,meteobridge,2013-09-11 06:12:00,
2013-09-11 02:18:00,76.5,76.1,30.04,NE,45,2.2,2.2,99,0.00,,,0.00,921.0,meteobridge,2013-09-11 06:18:00,
2013-09-11 02:23:00,76.5,76.1,30.04,East,90,2.2,2.2,99,0.00,,,0.00,957.0,meteobridge,2013-09-11 06:23:00,
2013-09-11 02:28:00,76.3,75.9,30.04,SE,135,3.1,3.1,99,0.00,,,0.00,957.0,meteobridge,2013-09-11 06:28:00,
2013-09-11 02:33:00,76.1,75.7,30.04,East,90,3.1,3.8,99,0.00,,,0.00,957.0,meteobridge,2013-09-11 06:33:00,
2013-09-11 02:38:00,76.1,75.7,30.03,East,90,3.1,4.5,99,0.00,,,0.00,957.0,meteobridge,2013-09-11 06:38:00,
2013-09-11 02:44:00,76.1,75.7,30.03,NE,45,1.6,1.6,99,0.00,,,0.00,994.0,meteobridge,2013-09-11 06:44:00,
2013-09-11 02:49:00,76.1,75.7,30.03,NE,45,2.2,3.1,99,0.00,,,0.00,994.0,meteobridge,2013-09-11 06:49:00,
2013-09-11 02:54:00,76.1,75.7,30.03,East,90,2.2,2.2,99,0.00,,,0.00,994.0,meteobridge,2013-09-11 06:54:00,
2013-09-11 02:59:00,75.9,75.6,30.03,East,90,1.6,1.6,99,0.00,,,0.00,994.0,meteobridge,2013-09-11 06:59:00,
2013-09-11 03:04:00,75.9,75.6,30.02,East,90,2.2,4.5,99,0.00,,,0.00,1030.0,meteobridge,2013-09-11 07:04:00,
2013-09-11 03:09:00,75.9,75.6,30.02,NE,45,2.2,3.1,99,0.00,,,0.00,1030.0,meteobridge,2013-09-11 07:09:00,
2013-09-11 03:15:00,75.9,75.6,30.02,NE,45,2.2,3.1,99,0.00,,,0.00,1067.0,meteobridge,2013-09-11 07:15:00,
2013-09-11 03:20:00,75.7,75.4,30.02,SE,135,1.6,2.2,99,0.00,,,0.00,1067.0,meteobridge,2013-09-11 07:20:00,
2013-09-11 03:25:00,75.7,75.4,30.02,East,90,2.2,2.2,99,0.00,,,0.00,1104.0,meteobridge,2013-09-11 07:25:00,
2013-09-11 03:30:00,75.7,75.4,30.02,NW,315,1.6,3.1,99,0.00,,,0.00,1104.0,meteobridge,2013-09-11 07:30:00,
2013-09-11 03:35:00,75.7,75.4,30.02,East,90,3.1,4.5,99,0.00,,,0.00,1140.0,meteobridge,2013-09-11 07:35:00,
2013-09-11 03:40:00,75.6,75.2,30.02,NW,315,1.6,2.2,99,0.00,,,0.00,1140.0,meteobridge,2013-09-11 07:40:00,
2013-09-11 03:46:00,75.4,75.0,30.02,NE,45,0.7,1.6,99,0.00,,,0.00,1140.0,meteobridge,2013-09-11 07:46:00,
2013-09-11 03:51:00,75.4,75.0,30.02,North,0,2.2,3.1,99,0.00,,,0.00,1177.0,meteobridge,2013-09-11 07:51:00,
2013-09-11 03:56:00,75.4,75.0,30.02,East,90,2.2,3.1,99,0.00,,,0.00,1177.0,meteobridge,2013-09-11 07:56:00,
2013-09-11 04:01:00,75.6,75.2,30.02,North,0,1.6,3.8,99,0.00,,,0.00,1213.0,meteobridge,2013-09-11 08:01:00,
2013-09-11 04:06:00,75.6,75.2,30.02,NE,45,2.2,2.2,99,0.00,,,0.00,1213.0,meteobridge,2013-09-11 08:06:00,
2013-09-11 04:11:00,75.6,75.2,30.02,NW,315,3.1,3.1,99,0.00,,,0.00,1250.0,meteobridge,2013-09-11 08:11:00,
2013-09-11 04:17:00,75.6,75.2,30.02,East,90,3.1,3.1,99,0.00,,,0.00,1250.0,meteobridge,2013-09-11 08:17:00,
2013-09-11 04:22:00,75.6,75.2,30.02,North,0,3.8,3.8,99,0.00,,,0.00,1287.0,meteobridge,2013-09-11 08:22:00,
2013-09-11 04:27:00,75.6,75.2,30.02,East,90,3.1,3.1,99,0.00,,,0.00,1287.0,meteobridge,2013-09-11 08:27:00,
2013-09-11 04:32:00,75.6,75.2,30.02,WNW,293,2.2,3.1,99,0.00,,,0.00,1323.0,meteobridge,2013-09-11 08:32:00,
2013-09-11 04:37:00,75.6,75.2,30.02,North,0,1.6,2.2,99,0.00,,,0.00,1323.0,meteobridge,2013-09-11 08:37:00,
2013-09-11 04:42:00,75.4,75.0,30.02,West,270,3.8,6.0,99,0.00,,,0.00,1360.0,meteobridge,2013-09-11 08:42:00,
2013-09-11 04:48:00,75.4,75.0,30.02,NW,315,5.4,5.4,99,0.00,,,0.00,1360.0,meteobridge,2013-09-11 08:48:00,
2013-09-11 04:53:00,75.4,75.0,30.02,NW,315,4.5,4.5,99,0.00,,,0.00,1360.0,meteobridge,2013-09-11 08:53:00,
2013-09-11 04:58:00,75.4,75.0,30.02,East,90,2.2,2.2,99,0.00,,,0.00,1360.0,meteobridge,2013-09-11 08:58:00,
2013-09-11 05:03:00,75.4,75.0,30.02,NE,45,3.1,3.1,99,0.00,,,0.00,1396.0,meteobridge,2013-09-11 09:03:00,
2013-09-11 05:08:00,75.2,74.8,30.02,East,90,3.1,4.5,99,0.00,,,0.00,1396.0,meteobridge,2013-09-11 09:08:00,
2013-09-11 05:13:00,75.4,75.0,30.02,NE,45,3.8,3.8,99,0.00,,,0.00,1433.0,meteobridge,2013-09-11 09:13:00,
2013-09-11 05:19:00,75.4,75.0,30.02,East,90,1.6,1.6,99,0.00,,,0.00,1433.0,meteobridge,2013-09-11 09:19:00,
2013-09-11 05:24:00,75.4,75.0,30.02,SE,135,4.5,4.5,99,0.00,,,0.00,1470.0,meteobridge,2013-09-11 09:24:00,
2013-09-11 05:29:00,75.4,75.0,30.02,NE,45,3.1,3.8,99,0.00,,,0.00,1470.0,meteobridge,2013-09-11 09:29:00,
2013-09-11 05:34:00,75.4,75.0,30.02,East,90,1.6,2.2,99,0.00,,,0.00,1506.0,meteobridge,2013-09-11 09:34:00,
2013-09-11 05:39:00,75.4,75.0,30.02,SE,135,2.2,3.8,99,0.00,,,0.00,1506.0,meteobridge,2013-09-11 09:39:00,
2013-09-11 05:44:00,75.2,74.8,30.03,NE,45,3.8,3.8,99,0.00,,,0.00,1543.0,meteobridge,2013-09-11 09:44:00,
2013-09-11 05:50:00,75.2,74.8,30.03,NNE,23,2.2,3.1,99,0.00,,,0.00,1543.0,meteobridge,2013-09-11 09:50:00,
2013-09-11 05:55:00,75.2,74.8,30.03,NNE,23,2.2,3.8,99,0.00,,,0.00,1543.0,meteobridge,2013-09-11 09:55:00,
2013-09-11 06:00:00,75.2,74.8,30.03,NE,45,2.2,4.5,99,0.00,,,0.00,1543.0,meteobridge,2013-09-11 10:00:00,
2013-09-11 06:05:00,75.2,74.8,30.03,East,90,2.2,3.1,99,0.00,,,0.00,1580.0,meteobridge,2013-09-11 10:05:00,
2013-09-11 06:10:00,75.2,74.8,30.03,East,90,1.6,6.9,99,0.00,,,0.00,1580.0,meteobridge,2013-09-11 10:10:00,
2013-09-11 06:15:00,75.2,74.8,30.03,East,90,3.8,3.8,99,0.00,,,0.00,1580.0,meteobridge,2013-09-11 10:15:00,
2013-09-11 06:21:00,75.4,75.0,30.04,NNE,23,2.2,3.1,99,0.00,,,0.00,1616.0,meteobridge,2013-09-11 10:21:00,
2013-09-11 06:26:00,75.4,75.0,30.04,East,90,1.6,3.8,99,0.00,,,0.00,1616.0,meteobridge,2013-09-11 10:26:00,
2013-09-11 06:31:00,75.2,74.8,30.04,East,90,3.8,3.8,99,0.00,,,0.00,1616.0,meteobridge,2013-09-11 10:31:00,
2013-09-11 06:36:00,75.2,74.8,30.04,NE,45,0.7,2.2,99,0.00,,,0.00,1616.0,meteobridge,2013-09-11 10:36:00,
2013-09-11 06:41:00,75.2,74.8,30.04,NW,315,2.2,3.1,99,0.00,,,0.00,1580.0,meteobridge,2013-09-11 10:41:00,
2013-09-11 06:46:00,75.0,74.7,30.04,NE,45,1.6,3.1,99,0.00,,,0.00,1580.0,meteobridge,2013-09-11 10:46:00,
2013-09-11 06:52:00,74.8,74.5,30.04,NE,45,3.8,3.8,99,0.00,,,0.00,1506.0,meteobridge,2013-09-11 10:52:00,
2013-09-11 06:57:00,74.8,74.5,30.05,East,90,1.6,2.2,99,0.00,,,0.00,1506.0,meteobridge,2013-09-11 10:57:00,
2013-09-11 07:02:00,74.8,74.5,30.04,ESE,113,4.5,4.5,99,0.00,,,0.00,1470.0,meteobridge,2013-09-11 11:02:00,
2013-09-11 07:07:00,75.0,74.7,30.05,North,0,3.1,3.8,99,0.00,,,0.00,1470.0,meteobridge,2013-09-11 11:07:00,
2013-09-11 07:12:00,74.8,74.5,30.04,North,0,2.2,2.2,99,0.00,,,0.00,1470.0,meteobridge,2013-09-11 11:12:00,
2013-09-11 07:17:00,75.0,74.7,30.05,NE,45,3.1,3.1,99,0.00,,,0.00,1470.0,meteobridge,2013-09-11 11:17:00,
2013-09-11 07:23:00,75.0,74.7,30.05,NE,45,1.6,2.2,99,0.00,,,0.00,1470.0,meteobridge,2013-09-11 11:23:00,
2013-09-11 07:28:00,75.0,74.7,30.05,NW,315,3.8,3.8,99,0.00,,,0.00,1470.0,meteobridge,2013-09-11 11:28:00,
2013-09-11 07:33:00,75.4,75.0,30.05,East,90,0.7,2.2,99,0.00,,,0.00,1470.0,meteobridge,2013-09-11 11:33:00,
2013-09-11 07:38:00,75.6,75.2,30.06,North,0,2.2,2.2,99,0.00,,,0.00,1470.0,meteobridge,2013-09-11 11:38:00,
2013-09-11 07:43:00,76.1,75.7,30.05,NE,45,3.1,3.8,99,0.00,,,0.00,1470.0,meteobridge,2013-09-11 11:43:00,
2013-09-11 07:48:00,76.6,76.3,30.05,SE,135,3.1,3.1,99,0.00,,,0.00,1470.0,meteobridge,2013-09-11 11:48:00,
2013-09-11 07:54:00,77.2,76.8,30.05,NW,315,3.8,3.8,99,0.00,,,0.00,1470.0,meteobridge,2013-09-11 11:54:00,
2013-09-11 07:59:00,77.9,77.5,30.06,NW,315,2.2,2.2,99,0.00,,,0.00,1470.0,meteobridge,2013-09-11 11:59:00,
2013-09-11 08:04:00,78.4,78.1,30.06,North,0,4.5,4.5,99,0.00,,,0.00,1470.0,meteobridge,2013-09-11 12:04:00,
2013-09-11 08:09:00,78.8,78.4,30.06,East,90,3.8,3.8,99,0.00,,,0.00,1470.0,meteobridge,2013-09-11 12:09:00,
2013-09-11 08:14:00,79.3,79.0,30.06,North,0,3.8,3.8,99,0.00,,,0.00,1470.0,meteobridge,2013-09-11 12:14:00,
2013-09-11 08:19:00,79.5,78.6,30.06,ENE,68,3.1,5.4,97,0.00,,,0.00,1470.0,meteobridge,2013-09-11 12:19:00,
2013-09-11 08:25:00,79.9,78.6,30.06,East,90,6.0,6.0,96,0.00,,,0.00,1470.0,meteobridge,2013-09-11 12:25:00,
2013-09-11 08:30:00,80.4,78.8,30.06,East,90,4.5,4.5,95,0.00,,,0.00,1470.0,meteobridge,2013-09-11 12:30:00,
2013-09-11 08:35:00,80.2,78.4,30.06,NE,45,4.5,6.0,94,0.00,,,0.00,1506.0,meteobridge,2013-09-11 12:35:00,
2013-09-11 08:40:00,80.2,78.4,30.07,East,90,7.6,7.6,94,0.00,,,0.00,1506.0,meteobridge,2013-09-11 12:40:00,
2013-09-11 08:45:00,80.6,79.0,30.07,South,180,3.1,6.0,95,0.00,,,0.00,1506.0,meteobridge,2013-09-11 12:45:00,
2013-09-11 08:50:00,81.0,78.8,30.07,East,90,9.8,9.8,93,0.00,,,0.00,1506.0,meteobridge,2013-09-11 12:50:00,
2013-09-11 08:56:00,81.1,79.2,30.07,SE,135,3.8,6.9,94,0.00,,,0.00,1506.0,meteobridge,2013-09-11 12:56:00,
2013-09-11 09:01:00,81.5,79.3,30.07,East,90,5.4,5.4,93,0.00,,,0.00,1506.0,meteobridge,2013-09-11 13:01:00,
2013-09-11 09:06:00,81.7,78.8,30.07,East,90,9.8,9.8,91,0.00,,,0.00,1506.0,meteobridge,2013-09-11 13:06:00,
2013-09-11 09:11:00,81.9,79.3,30.07,East,90,7.6,7.6,92,0.00,,,0.00,1506.0,meteobridge,2013-09-11 13:11:00,
2013-09-11 09:16:00,82.2,78.6,30.07,East,90,11.4,11.4,89,0.00,,,0.00,1506.0,meteobridge,2013-09-11 13:16:00,
2013-09-11 09:22:00,82.4,79.9,30.07,NNE,23,8.3,8.3,92,0.00,,,0.00,1506.0,meteobridge,2013-09-11 13:22:00,
2013-09-11 09:27:00,81.1,79.2,30.07,North,0,9.8,9.8,94,0.00,,,0.00,1506.0,meteobridge,2013-09-11 13:27:00,
2013-09-11 09:32:00,80.2,79.3,30.07,East,90,6.0,8.3,97,0.02,,,0.02,1506.0,meteobridge,2013-09-11 13:32:00,
2013-09-11 09:37:00,80.4,79.5,30.07,East,90,5.4,9.2,97,0.02,,,0.02,1506.0,meteobridge,2013-09-11 13:37:00,
2013-09-11 09:42:00,79.9,79.5,30.07,North,0,6.0,6.0,99,0.02,,,0.02,1506.0,meteobridge,2013-09-11 13:42:00,
2013-09-11 09:47:00,80.4,80.1,30.07,North,0,6.0,9.8,99,0.02,,,0.02,1506.0,meteobridge,2013-09-11 13:47:00,
2013-09-11 09:53:00,79.7,79.3,30.07,East,90,7.6,7.6,99,0.02,,,0.02,1506.0,meteobridge,2013-09-11 13:53:00,
2013-09-11 09:58:00,79.7,79.3,30.07,NE,45,7.6,8.3,99,0.02,,,0.02,1506.0,meteobridge,2013-09-11 13:58:00,
2013-09-11 10:03:00,81.0,79.7,30.07,SE,135,7.6,10.7,96,0.02,,,0.02,1470.0,meteobridge,2013-09-11 14:03:00,
2013-09-11 10:08:00,81.9,79.0,30.07,SE,135,12.1,12.1,91,0.02,,,0.02,1470.0,meteobridge,2013-09-11 14:08:00,
2013-09-11 10:13:00,82.9,79.7,30.07,NE,45,8.3,8.3,90,0.02,,,0.02,1470.0,meteobridge,2013-09-11 14:13:00,
2013-09-11 10:18:00,83.8,78.4,30.07,East,90,10.7,15.9,84,0.02,,,0.02,1470.0,meteobridge,2013-09-11 14:18:00,
2013-09-11 10:24:00,83.5,77.7,30.07,North,0,9.2,9.8,83,0.02,,,0.02,1470.0,meteobridge,2013-09-11 14:24:00,
2013-09-11 10:29:00,81.3,77.4,30.07,SE,135,9.8,9.8,88,0.02,,,0.02,1470.0,meteobridge,2013-09-11 14:29:00,
2013-09-11 10:34:00,80.6,77.7,30.07,East,90,9.8,12.1,91,0.00,,,0.02,1470.0,meteobridge,2013-09-11 14:34:00,
2013-09-11 10:39:00,81.1,77.5,30.07,North,0,9.2,9.8,89,0.00,,,0.02,1470.0,meteobridge,2013-09-11 14:39:00,
2013-09-11 10:44:00,81.7,77.7,30.07,East,90,8.3,8.3,88,0.00,,,0.02,1470.0,meteobridge,2013-09-11 14:44:00,
2013-09-11 10:49:00,82.0,77.7,30.07,East,90,13.0,13.0,87,0.00,,,0.02,1470.0,meteobridge,2013-09-11 14:49:00,
2013-09-11 10:55:00,83.1,78.1,30.07,East,90,9.8,15.2,85,0.00,,,0.02,1470.0,meteobridge,2013-09-11 14:55:00,
2013-09-11 11:00:00,83.7,77.5,30.07,East,90,10.7,12.1,82,0.00,,,0.02,1470.0,meteobridge,2013-09-11 15:00:00,
2013-09-11 11:05:00,83.8,77.7,30.06,East,90,6.0,6.9,82,0.00,,,0.02,1470.0,meteobridge,2013-09-11 15:05:00,
2013-09-11 11:10:00,83.8,77.7,30.06,East,90,13.0,13.0,82,0.00,,,0.02,1470.0,meteobridge,2013-09-11 15:10:00,
2013-09-11 11:15:00,84.4,77.2,30.06,East,90,13.0,13.0,79,0.00,,,0.02,1470.0,meteobridge,2013-09-11 15:15:00,
2013-09-11 11:20:00,84.6,78.1,30.07,SE,135,10.7,10.7,81,0.00,,,0.02,1470.0,meteobridge,2013-09-11 15:20:00,
2013-09-11 11:26:00,85.3,77.7,30.06,East,90,9.2,11.4,78,0.00,,,0.02,1470.0,meteobridge,2013-09-11 15:26:00,
2013-09-11 11:31:00,85.6,76.8,30.06,East,90,10.7,11.4,75,0.00,,,0.02,1433.0,meteobridge,2013-09-11 15:31:00,
2013-09-11 11:36:00,85.6,77.5,30.06,North,0,4.5,7.6,77,0.00,,,0.02,1433.0,meteobridge,2013-09-11 15:36:00,
2013-09-11 11:41:00,86.0,76.3,30.06,East,90,10.7,10.7,73,0.00,,,0.02,1433.0,meteobridge,2013-09-11 15:41:00,
2013-09-11 11:46:00,86.5,75.6,30.06,East,90,9.2,10.7,70,0.00,,,0.02,1433.0,meteobridge,2013-09-11 15:46:00,
2013-09-11 11:51:00,86.5,75.9,30.06,NE,45,9.8,14.5,71,0.00,,,0.02,1433.0,meteobridge,2013-09-11 15:51:00,
2013-09-11 11:57:00,86.7,75.7,30.06,NE,45,8.3,13.6,70,0.00,,,0.02,1433.0,meteobridge,2013-09-11 15:57:00,
2013-09-11 12:02:00,87.3,75.4,30.06,East,90,9.8,11.4,68,0.00,,,0.02,1433.0,meteobridge,2013-09-11 16:02:00,
2013-09-11 12:07:00,87.3,75.0,30.06,East,90,9.2,11.4,67,0.00,,,0.02,1433.0,meteobridge,2013-09-11 16:07:00,
2013-09-11 12:12:00,87.6,74.3,30.06,NE,45,12.1,12.1,65,0.00,,,0.02,1433.0,meteobridge,2013-09-11 16:12:00,
2013-09-11 12:17:00,88.0,73.8,30.06,NE,45,11.4,13.6,63,0.00,,,0.02,1433.0,meteobridge,2013-09-11 16:17:00,
2013-09-11 12:22:00,88.0,72.9,30.06,East,90,12.1,15.9,61,0.00,,,0.02,1396.0,meteobridge,2013-09-11 16:22:00,
2013-09-11 12:28:00,88.0,73.8,30.06,East,90,8.3,9.2,63,0.00,,,0.02,1396.0,meteobridge,2013-09-11 16:28:00,
2013-09-11 12:33:00,88.2,73.0,30.05,ENE,68,9.8,12.1,61,0.00,,,0.02,1396.0,meteobridge,2013-09-11 16:33:00,
2013-09-11 12:38:00,88.3,72.7,30.05,SSE,158,9.8,13.0,60,0.00,,,0.02,1396.0,meteobridge,2013-09-11 16:38:00,
2013-09-11 12:43:00,88.9,74.7,30.04,SE,135,4.5,4.5,63,0.00,,,0.02,1396.0,meteobridge,2013-09-11 16:43:00,
2013-09-11 12:48:00,89.1,73.4,30.05,SE,135,7.6,13.0,60,0.00,,,0.02,1396.0,meteobridge,2013-09-11 16:48:00,
2013-09-11 12:53:00,88.9,73.2,30.05,ENE,68,9.8,9.8,60,0.00,,,0.02,1396.0,meteobridge,2013-09-11 16:53:00,
2013-09-11 12:59:00,88.5,72.9,30.05,East,90,8.3,8.3,60,0.00,,,0.02,1396.0,meteobridge,2013-09-11 16:59:00,
2013-09-11 13:04:00,88.9,73.8,30.05,SE,135,7.6,7.6,61,0.00,,,0.02,1396.0,meteobridge,2013-09-11 17:04:00,
2013-09-11 13:09:00,88.7,72.0,30.05,East,90,9.8,10.7,58,0.00,,,0.02,1396.0,meteobridge,2013-09-11 17:09:00,
2013-09-11 13:14:00,88.9,72.7,30.04,East,90,10.7,11.4,59,0.00,,,0.02,1396.0,meteobridge,2013-09-11 17:14:00,
2013-09-11 13:19:00,89.4,72.1,30.04,East,90,9.2,11.4,57,0.00,,,0.02,1396.0,meteobridge,2013-09-11 17:19:00,
2013-09-11 13:24:00,89.8,72.0,30.05,SE,135,13.0,14.5,56,0.00,,,0.02,1360.0,meteobridge,2013-09-11 17:24:00,
2013-09-11 13:30:00,89.2,72.0,30.05,SE,135,20.6,22.8,57,0.00,,,0.02,1360.0,meteobridge,2013-09-11 17:30:00,
2013-09-11 13:35:00,86.0,71.4,30.06,East,90,15.9,18.3,62,0.00,,,0.02,1360.0,meteobridge,2013-09-11 17:35:00,
2013-09-11 13:40:00,83.8,71.2,30.05,SE,135,14.5,16.8,66,0.00,,,0.02,1360.0,meteobridge,2013-09-11 17:40:00,
2013-09-11 13:45:00,82.6,72.1,30.05,East,90,15.9,15.9,71,0.00,,,0.02,1360.0,meteobridge,2013-09-11 17:45:00,
2013-09-11 13:50:00,81.0,72.3,30.05,East,90,10.7,21.3,75,0.01,,,0.04,1360.0,meteobridge,2013-09-11 17:50:00,
2013-09-11 13:55:00,81.1,72.5,30.05,East,90,9.2,14.5,75,0.01,,,0.04,1360.0,meteobridge,2013-09-11 17:55:00,
2013-09-11 14:01:00,81.9,72.7,30.04,East,90,9.2,11.4,74,0.01,,,0.04,1360.0,meteobridge,2013-09-11 18:01:00,
2013-09-11 14:06:00,82.2,72.7,30.04,East,90,7.6,13.0,73,0.01,,,0.04,1360.0,meteobridge,2013-09-11 18:06:00,
2013-09-11 14:11:00,82.4,72.9,30.04,East,90,13.6,13.6,73,0.01,,,0.04,1323.0,meteobridge,2013-09-11 18:11:00,
2013-09-11 14:16:00,82.0,72.5,30.04,East,90,13.6,14.5,73,0.01,,,0.04,1323.0,meteobridge,2013-09-11 18:16:00,
2013-09-11 14:21:00,81.9,72.0,30.04,East,90,12.1,14.5,72,0.01,,,0.04,1323.0,meteobridge,2013-09-11 18:21:00,
2013-09-11 14:26:00,82.9,73.0,30.03,NE,45,11.4,12.1,72,0.01,,,0.04,1323.0,meteobridge,2013-09-11 18:26:00,
2013-09-11 14:32:00,84.6,72.9,30.03,SSW,203,9.2,12.1,68,0.01,,,0.04,1323.0,meteobridge,2013-09-11 18:32:00,
2013-09-11 14:37:00,85.6,72.5,30.03,ENE,68,9.8,14.5,65,0.01,,,0.04,1323.0,meteobridge,2013-09-11 18:37:00,
2013-09-11 14:42:00,86.0,71.4,30.02,East,90,8.3,19.0,62,0.01,,,0.04,1323.0,meteobridge,2013-09-11 18:42:00,
2013-09-11 14:47:00,86.2,72.1,30.02,East,90,8.3,9.2,63,0.00,,,0.04,1323.0,meteobridge,2013-09-11 18:47:00,
2013-09-11 14:52:00,86.7,70.7,30.02,East,90,11.4,13.0,59,0.00,,,0.04,1287.0,meteobridge,2013-09-11 18:52:00,
2013-09-11 14:58:00,86.7,71.2,30.01,East,90,9.2,13.0,60,0.00,,,0.04,1287.0,meteobridge,2013-09-11 18:58:00,
2013-09-11 15:03:00,86.9,72.9,30.02,NE,45,9.2,13.0,63,0.00,,,0.04,1287.0,meteobridge,2013-09-11 19:03:00,
2013-09-11 15:08:00,87.3,73.0,30.01,NE,45,10.7,10.7,63,0.00,,,0.04,1287.0,meteobridge,2013-09-11 19:08:00,
2013-09-11 15:13:00,87.4,72.9,30.01,East,90,11.4,11.4,62,0.00,,,0.04,1287.0,meteobridge,2013-09-11 19:13:00,
2013-09-11 15:18:00,87.3,72.1,30.01,NW,315,9.2,13.6,61,0.00,,,0.04,1287.0,meteobridge,2013-09-11 19:18:00,
2013-09-11 15:23:00,87.3,71.6,30.01,NE,45,7.6,12.1,60,0.00,,,0.04,1287.0,meteobridge,2013-09-11 19:23:00,
2013-09-11 15:29:00,87.4,71.8,30.01,NE,45,10.7,13.0,60,0.00,,,0.04,1287.0,meteobridge,2013-09-11 19:29:00,
2013-09-11 15:34:00,87.8,72.1,30.01,North,0,8.3,9.2,60,0.00,,,0.04,1287.0,meteobridge,2013-09-11 19:34:00,
2013-09-11 15:39:00,88.2,71.1,30.01,East,90,10.7,14.5,57,0.00,,,0.04,1287.0,meteobridge,2013-09-11 19:39:00,
2013-09-11 15:44:00,88.5,72.3,30.00,NE,45,6.9,6.9,59,0.00,,,0.04,1250.0,meteobridge,2013-09-11 19:44:00,
2013-09-11 15:49:00,88.3,70.7,30.00,East,90,9.2,13.0,56,0.00,,,0.04,1250.0,meteobridge,2013-09-11 19:49:00,
2013-09-11 15:54:00,88.3,72.1,30.00,East,90,8.3,9.8,59,0.00,,,0.04,1250.0,meteobridge,2013-09-11 19:54:00,
2013-09-11 16:00:00,88.7,71.4,30.00,East,90,14.5,14.5,57,0.00,,,0.04,1250.0,meteobridge,2013-09-11 20:00:00,
2013-09-11 16:05:00,88.7,72.0,29.99,East,90,6.9,8.3,58,0.00,,,0.04,1250.0,meteobridge,2013-09-11 20:05:00,
2013-09-11 16:10:00,88.9,72.1,29.99,NE,45,8.3,9.8,58,0.00,,,0.04,1250.0,meteobridge,2013-09-11 20:10:00,
2013-09-11 16:15:00,88.9,71.6,29.99,East,90,9.8,9.8,57,0.00,,,0.04,1250.0,meteobridge,2013-09-11 20:15:00,
2013-09-11 16:20:00,88.5,70.9,29.99,NE,45,9.8,10.7,56,0.00,,,0.04,1250.0,meteobridge,2013-09-11 20:20:00,
2013-09-11 16:25:00,88.7,72.0,29.99,East,90,5.4,9.8,58,0.00,,,0.04,1213.0,meteobridge,2013-09-11 20:25:00,
2013-09-11 16:31:00,89.1,72.3,29.99,East,90,6.0,9.8,58,0.00,,,0.04,1213.0,meteobridge,2013-09-11 20:31:00,
2013-09-11 16:36:00,88.9,71.1,30.00,East,90,7.6,9.2,56,0.00,,,0.04,1213.0,meteobridge,2013-09-11 20:36:00,
2013-09-11 16:41:00,88.7,70.5,30.00,ENE,68,13.0,13.0,55,0.00,,,0.04,1213.0,meteobridge,2013-09-11 20:41:00,
2013-09-11 16:46:00,88.7,71.4,29.99,East,90,9.8,12.1,57,0.00,,,0.04,1213.0,meteobridge,2013-09-11 20:46:00,
2013-09-11 16:51:00,88.9,71.1,29.99,NE,45,10.7,13.0,56,0.00,,,0.04,1213.0,meteobridge,2013-09-11 20:51:00,
2013-09-11 16:56:00,88.9,70.2,30.00,SE,135,13.6,13.6,54,0.00,,,0.04,1213.0,meteobridge,2013-09-11 20:56:00,
2013-09-11 17:02:00,89.1,71.2,30.00,East,90,11.4,11.4,56,0.00,,,0.04,1177.0,meteobridge,2013-09-11 21:02:00,
2013-09-11 17:07:00,88.9,70.2,29.99,East,90,14.5,14.5,54,0.00,,,0.04,1177.0,meteobridge,2013-09-11 21:07:00,
2013-09-11 17:12:00,88.7,70.0,30.00,East,90,6.9,10.7,54,0.00,,,0.04,1177.0,meteobridge,2013-09-11 21:12:00,
2013-09-11 17:17:00,88.9,68.9,29.99,ENE,68,9.8,11.4,52,0.00,,,0.04,1177.0,meteobridge,2013-09-11 21:17:00,
2013-09-11 17:22:00,89.1,70.2,29.99,East,90,8.3,9.2,54,0.00,,,0.04,1177.0,meteobridge,2013-09-11 21:22:00,
2013-09-11 17:27:00,89.1,69.6,29.99,East,90,8.3,10.7,53,0.00,,,0.04,1177.0,meteobridge,2013-09-11 21:27:00,
2013-09-11 17:33:00,89.2,69.3,29.99,East,90,6.9,10.7,52,0.00,,,0.04,1177.0,meteobridge,2013-09-11 21:33:00,
2013-09-11 17:38:00,89.2,68.7,29.99,SSW,203,10.7,10.7,51,0.00,,,0.04,1177.0,meteobridge,2013-09-11 21:38:00,
2013-09-11 17:43:00,89.1,68.5,29.99,SE,135,12.1,12.1,51,0.00,,,0.04,1177.0,meteobridge,2013-09-11 21:43:00,
2013-09-11 17:48:00,89.1,68.5,29.98,East,90,8.3,10.7,51,0.00,,,0.04,1177.0,meteobridge,2013-09-11 21:48:00,
2013-09-11 17:53:00,88.9,68.9,29.98,East,90,9.8,13.0,52,0.00,,,0.04,1140.0,meteobridge,2013-09-11 21:53:00,
2013-09-11 17:58:00,88.7,69.4,29.99,East,90,6.0,9.2,53,0.00,,,0.04,1140.0,meteobridge,2013-09-11 21:58:00,
2013-09-11 18:04:00,88.5,69.8,29.99,East,90,6.0,8.3,54,0.00,,,0.04,1140.0,meteobridge,2013-09-11 22:04:00,
2013-09-11 18:09:00,88.5,68.7,29.99,East,90,9.2,9.2,52,0.00,,,0.04,1140.0,meteobridge,2013-09-11 22:09:00,
2013-09-11 18:14:00,88.3,69.6,29.99,NE,45,4.5,6.0,54,0.00,,,0.04,1140.0,meteobridge,2013-09-11 22:14:00,
2013-09-11 18:19:00,88.3,69.6,30.00,East,90,7.6,7.6,54,0.00,,,0.04,1140.0,meteobridge,2013-09-11 22:19:00,
2013-09-11 18:24:00,88.3,70.2,30.00,East,90,6.9,6.9,55,0.00,,,0.04,1140.0,meteobridge,2013-09-11 22:24:00,
2013-09-11 18:29:00,88.3,70.2,30.00,SE,135,9.2,9.2,55,0.00,,,0.04,1140.0,meteobridge,2013-09-11 22:29:00,
2013-09-11 18:35:00,88.2,70.5,30.00,ENE,68,6.9,6.9,56,0.00,,,0.04,1104.0,meteobridge,2013-09-11 22:35:00,
2013-09-11 18:40:00,88.0,70.9,30.00,East,90,6.9,6.9,57,0.00,,,0.04,1104.0,meteobridge,2013-09-11 22:40:00,
2013-09-11 18:45:00,87.8,70.7,30.00,SW,225,6.9,7.6,57,0.00,,,0.04,1104.0,meteobridge,2013-09-11 22:45:00,
2013-09-11 18:50:00,87.6,71.1,30.00,SE,135,6.0,8.3,58,0.00,,,0.04,1104.0,meteobridge,2013-09-11 22:50:00,
2013-09-11 18:55:00,87.6,71.6,30.00,South,180,6.9,7.6,59,0.00,,,0.04,1104.0,meteobridge,2013-09-11 22:55:00,
2013-09-11 19:00:00,87.3,71.6,30.00,SE,135,4.5,5.4,60,0.00,,,0.04,1104.0,meteobridge,2013-09-11 23:00:00,
2013-09-11 19:06:00,87.1,71.4,30.00,SE,135,3.8,5.4,60,0.00,,,0.04,1104.0,meteobridge,2013-09-11 23:06:00,
2013-09-11 19:11:00,86.9,71.4,30.00,South,180,3.8,6.9,60,0.00,,,0.04,1104.0,meteobridge,2013-09-11 23:11:00,
2013-09-11 19:16:00,86.5,72.5,29.99,East,90,1.6,2.2,63,0.00,,,0.04,1104.0,meteobridge,2013-09-11 23:16:00,
2013-09-11 19:21:00,86.2,73.0,30.00,NE,45,2.2,4.5,65,0.00,,,0.04,1067.0,meteobridge,2013-09-11 23:21:00,
2013-09-11 19:26:00,85.6,73.0,29.99,NE,45,1.6,3.1,66,0.00,,,0.04,1067.0,meteobridge,2013-09-11 23:26:00,
2013-09-11 19:31:00,85.5,73.8,30.00,South,180,1.6,1.6,68,0.00,,,0.04,1067.0,meteobridge,2013-09-11 23:31:00,
2013-09-11 19:37:00,84.9,73.6,30.00,SE,135,0.7,1.6,69,0.00,,,0.04,1067.0,meteobridge,2013-09-11 23:37:00,
2013-09-11 19:42:00,84.6,73.8,30.00,South,180,2.2,2.2,70,0.00,,,0.04,1067.0,meteobridge,2013-09-11 23:42:00,
2013-09-11 19:47:00,84.4,73.9,30.00,East,90,2.2,2.2,71,0.00,,,0.04,1067.0,meteobridge,2013-09-11 23:47:00,
2013-09-11 19:52:00,84.2,74.7,30.00,South,180,2.2,2.2,73,0.00,,,0.04,1067.0,meteobridge,2013-09-11 23:52:00,
2013-09-11 19:57:00,84.0,74.5,30.01,SE,135,2.2,2.2,73,0.00,,,0.04,1067.0,meteobridge,2013-09-11 23:57:00,
2013-09-11 20:02:00,84.0,74.8,30.01,East,90,2.2,2.2,74,0.00,,,0.04,1067.0,meteobridge,2013-09-12 00:02:00,
2013-09-11 20:08:00,84.4,75.6,30.02,SE,135,2.2,3.1,75,0.00,,,0.04,1067.0,meteobridge,2013-09-12 00:08:00,
2013-09-11 20:13:00,83.8,75.4,30.02,SE,135,12.1,12.1,76,0.00,,,0.04,1067.0,meteobridge,2013-09-12 00:13:00,
2013-09-11 20:18:00,81.7,73.4,30.03,ESE,113,14.5,14.5,76,0.00,,,0.04,1067.0,meteobridge,2013-09-12 00:18:00,
2013-09-11 20:23:00,79.9,71.6,30.03,East,90,16.8,16.8,76,0.00,,,0.04,1067.0,meteobridge,2013-09-12 00:23:00,
2013-09-11 20:28:00,79.2,71.2,30.03,South,180,11.4,13.6,77,0.00,,,0.04,1067.0,meteobridge,2013-09-12 00:28:00,
2013-09-11 20:33:00,77.7,71.1,30.03,ESE,113,9.2,12.1,80,0.00,,,0.04,1067.0,meteobridge,2013-09-12 00:33:00,
2013-09-11 20:39:00,76.6,71.4,30.03,East,90,4.5,9.2,84,0.00,,,0.04,1067.0,meteobridge,2013-09-12 00:39:00,
2013-09-11 20:44:00,75.9,71.1,30.02,East,90,6.9,6.9,85,0.00,,,0.04,1067.0,meteobridge,2013-09-12 00:44:00,
2013-09-11 20:49:00,75.4,70.2,30.01,East,90,6.0,7.6,84,0.00,,,0.04,1067.0,meteobridge,2013-09-12 00:49:00,
2013-09-11 20:54:00,75.2,70.3,30.01,SW,225,3.8,6.0,85,0.00,,,0.04,1067.0,meteobridge,2013-09-12 00:54:00,
2013-09-11 20:59:00,75.2,70.7,30.02,SSE,158,6.0,6.0,86,0.00,,,0.04,1067.0,meteobridge,2013-09-12 00:59:00,
2013-09-11 21:04:00,75.2,70.7,30.02,East,90,5.4,5.4,86,0.00,,,0.04,1067.0,meteobridge,2013-09-12 01:04:00,
2013-09-11 21:10:00,75.2,71.1,30.01,SE,135,6.0,6.0,87,0.00,,,0.04,1067.0,meteobridge,2013-09-12 01:10:00,
2013-09-11 21:15:00,75.0,70.9,30.02,SE,135,3.1,6.0,87,0.00,,,0.04,1067.0,meteobridge,2013-09-12 01:15:00,
2013-09-11 21:20:00,74.8,71.1,30.03,East,90,5.4,5.4,88,0.00,,,0.04,1067.0,meteobridge,2013-09-12 01:20:00,
2013-09-11 21:25:00,74.8,71.1,30.03,East,90,6.0,6.0,88,0.00,,,0.04,1104.0,meteobridge,2013-09-12 01:25:00,
2013-09-11 21:30:00,74.8,71.4,30.03,ESE,113,3.8,3.8,89,0.00,,,0.04,1104.0,meteobridge,2013-09-12 01:30:00,
2013-09-11 21:36:00,75.2,71.8,30.03,NE,45,3.1,3.8,89,0.00,,,0.04,1104.0,meteobridge,2013-09-12 01:36:00,
2013-09-11 21:41:00,75.2,71.8,30.03,East,90,3.8,3.8,89,0.00,,,0.04,1104.0,meteobridge,2013-09-12 01:41:00,
2013-09-11 21:46:00,75.6,72.1,30.03,East,90,2.2,3.8,89,0.00,,,0.04,1104.0,meteobridge,2013-09-12 01:46:00,
2013-09-11 21:51:00,75.6,72.1,30.03,North,0,3.1,3.1,89,0.00,,,0.04,1140.0,meteobridge,2013-09-12 01:51:00,
2013-09-11 21:56:00,75.6,72.1,30.03,South,180,0.7,3.8,89,0.00,,,0.04,1140.0,meteobridge,2013-09-12 01:56:00,
2013-09-11 22:01:00,75.6,72.1,30.03,South,180,1.6,2.2,89,0.00,,,0.04,1140.0,meteobridge,2013-09-12 02:01:00,
2013-09-11 22:06:00,75.4,72.0,30.03,South,180,2.2,3.1,89,0.00,,,0.04,1140.0,meteobridge,2013-09-12 02:06:00,
2013-09-11 22:11:00,75.2,71.8,30.04,South,180,1.6,3.8,89,0.00,,,0.04,1177.0,meteobridge,2013-09-12 02:11:00,
2013-09-11 22:17:00,75.0,72.0,30.04,SE,135,1.6,2.2,90,0.00,,,0.04,1177.0,meteobridge,2013-09-12 02:17:00,
2013-09-11 22:22:00,74.8,71.8,30.04,SW,225,0.7,2.2,90,0.00,,,0.04,1177.0,meteobridge,2013-09-12 02:22:00,
2013-09-11 22:27:00,74.8,72.0,30.04,SW,225,0.0,0.0,91,0.00,,,0.04,1177.0,meteobridge,2013-09-12 02:27:00,
2013-09-11 22:32:00,75.0,72.1,30.04,SE,135,1.6,1.6,91,0.00,,,0.04,1213.0,meteobridge,2013-09-12 02:32:00,
2013-09-11 22:37:00,75.0,72.1,30.04,South,180,1.6,1.6,91,0.00,,,0.04,1213.0,meteobridge,2013-09-12 02:37:00,
2013-09-11 22:42:00,75.0,72.1,30.04,South,180,0.7,1.6,91,0.00,,,0.04,1213.0,meteobridge,2013-09-12 02:42:00,
2013-09-11 22:48:00,74.8,72.0,30.04,SW,225,0.7,0.7,91,0.00,,,0.04,1213.0,meteobridge,2013-09-12 02:48:00,
2013-09-11 22:53:00,74.8,72.0,30.04,NW,315,0.0,0.7,91,0.00,,,0.04,1250.0,meteobridge,2013-09-12 02:53:00,
2013-09-11 22:58:00,75.0,72.5,30.04,East,90,1.6,1.6,92,0.00,,,0.04,1250.0,meteobridge,2013-09-12 02:58:00,
2013-09-11 23:03:00,75.2,72.7,30.04,East,90,2.2,2.2,92,0.00,,,0.04,1250.0,meteobridge,2013-09-12 03:03:00,
2013-09-11 23:08:00,75.4,72.9,30.04,East,90,2.2,2.2,92,0.00,,,0.04,1250.0,meteobridge,2013-09-12 03:08:00,
2013-09-11 23:13:00,75.6,73.0,30.04,East,90,2.2,2.2,92,0.00,,,0.04,1287.0,meteobridge,2013-09-12 03:13:00,
2013-09-11 23:19:00,75.7,73.2,30.04,NE,45,2.2,3.1,92,0.00,,,0.04,1287.0,meteobridge,2013-09-12 03:19:00,
2013-09-11 23:24:00,75.6,73.0,30.04,South,180,2.2,2.2,92,0.00,,,0.04,1287.0,meteobridge,2013-09-12 03:24:00,
2013-09-11 23:29:00,75.2,72.7,30.04,South,180,1.6,2.2,92,0.00,,,0.04,1287.0,meteobridge,2013-09-12 03:29:00,
2013-09-11 23:34:00,75.0,72.9,30.04,East,90,2.2,2.2,93,0.00,,,0.04,1323.0,meteobridge,2013-09-12 03:34:00,
2013-09-11 23:39:00,75.0,72.9,30.04,SE,135,2.2,2.2,93,0.00,,,0.04,1323.0,meteobridge,2013-09-12 03:39:00,
2013-09-11 23:45:00,75.0,73.2,30.04,South,180,1.6,2.2,94,0.00,,,0.04,1360.0,meteobridge,2013-09-12 03:45:00,
2013-09-11 23:50:00,75.2,73.4,30.04,South,180,0.7,1.6,94,0.00,,,0.04,1360.0,meteobridge,2013-09-12 03:50:00,
2013-09-11 23:55:00,75.2,73.4,30.03,SW,225,0.7,1.6,94,0.00,,,0.04,1360.0,meteobridge,2013-09-12 03:55:00,